Airfield :
LOGIN :

Register | Disclaimer

   EN    FR    IT 

 










Legend :    VFR   Marginal VFR   IFR   Intensive IFR   Very Intensive IFR
Visi :
Ceiling :
>= 8 km
>= 3000ft
5 to 8 km
1000 to 3000 ft
1500m to 5 km
500 to 1000 ft
800 to 1500m
200 to 500 ft
< 800m
< 200 ft
Symbols :   Thunderstorms  Fog  Heavy snow  Heavy precipitations  Wind > 20 kt
SIGMETs :     Misc.  Thunderstorms  Icing  Turbulence  Mountain Waves  Volcanic Ashes







- Airport Elevation : 353 ft
- IATA code : LIN


LIML - Milano Linate

CURRENT METAR :
  • 221950Z VRB02KT 9999 SCT040 24/20 Q1009 NOSIG

EXPIRED METARs :
  • 221920Z VRB01KT 9999 SCT040 25/19 Q1009 NOSIG
  • 221850Z VRB01KT 9999 SCT040 27/19 Q1009 NOSIG
  • 221820Z VRB02KT 9999 SCT025 28/20 Q1009 NOSIG
  • 221750Z VRB01KT 9999 FEW020 SCT030 27/18 Q1009 NOSIG
  • 221720Z 22004KT 180V270 9999 VCTS FEW020CB SCT030 29/16 Q1008 BECMG TS

TAF TAF LIML
Valid from the 22 at 18:00 until the 23 at 18:00 UTC


221700Z 2218/2318 VRB05KT 9999 SCT050
PROB40
TEMPO 2218/2220 TSRA
No reported NOTAMs for that airfield.
1 SIGMET reported for the Milano FIR (LIMM) :
 
Severe turbulence
LIMM SIGMET 2 VALID 221930/222330 LIIP
LIMM MILANO FIR SEV TURB FCST ENTIRE FIR ABV FL280 STNR NC=



MET'MAP, your aeronautical weather chart ! - Copyright ORBIFLY December 2007 - Disclaimer

ORBIFLY MET'MAP TEAM :

Programming & Development : Alexandra Zaïnal
Concept & Development : Baudouin d'Aumeries
Co-Development & Prog : Marc-Olivier Méhu
Technical & hardware support : Manuel Goepfert

Contact : metmap@orbifly.com




SOURCES & CREDITS :

   NOAA